createdAt,value
2023-04-24T00:01:48.802Z,313.57
2023-04-24T00:04:18.235Z,316.70
2023-04-24T00:06:50.417Z,313.53
2023-04-24T00:09:18.392Z,314.00
2023-04-24T00:11:46.430Z,313.73
2023-04-24T00:14:14.419Z,314.60
2023-04-24T00:16:42.488Z,312.47
2023-04-24T00:19:13.020Z,313.40
2023-04-24T00:21:41.904Z,314.63
2023-04-24T00:24:11.003Z,315.80
2023-04-24T00:26:38.957Z,313.67
2023-04-24T00:29:06.895Z,317.53
2023-04-24T00:31:35.932Z,314.70
2023-04-24T00:34:04.222Z,316.37
2023-04-24T00:36:33.704Z,309.90
2023-04-24T00:39:01.829Z,312.50
2023-04-24T00:41:29.965Z,312.73
2023-04-24T00:43:58.226Z,313.80
2023-04-24T00:46:26.356Z,311.57
2023-04-24T00:48:54.560Z,310.87
2023-04-24T00:51:22.590Z,310.93
2023-04-24T00:53:52.010Z,311.13
2023-04-24T00:56:20.893Z,310.30
2023-04-24T00:58:49.787Z,311.10
2023-04-24T01:01:18.085Z,308.83
2023-04-24T01:03:46.512Z,316.77
2023-04-24T01:06:15.118Z,317.20
2023-04-24T01:08:44.090Z,312.10
2023-04-24T01:11:13.907Z,313.10
2023-04-24T01:13:42.155Z,309.80
2023-04-24T01:16:10.211Z,309.63
2023-04-24T01:18:39.247Z,310.73
2023-04-24T01:21:09.803Z,319.17
2023-04-24T01:23:39.179Z,311.80
2023-04-24T01:26:07.253Z,316.30
2023-04-24T01:28:35.632Z,310.63
2023-04-24T01:31:03.702Z,311.40
2023-04-24T01:33:31.926Z,311.57
2023-04-24T01:36:00.116Z,312.43
2023-04-24T01:38:28.214Z,311.03
2023-04-24T01:40:57.619Z,310.33
2023-04-24T01:43:26.315Z,311.37
2023-04-24T01:45:56.119Z,309.73
2023-04-24T01:48:24.913Z,311.60
2023-04-24T01:50:52.919Z,312.40
2023-04-24T01:53:21.137Z,310.03
2023-04-24T01:55:49.138Z,309.37
2023-04-24T01:58:18.646Z,312.27
2023-04-24T02:00:46.641Z,312.83
2023-04-24T02:03:14.897Z,309.63
2023-04-24T02:05:45.497Z,310.63
2023-04-24T02:08:13.546Z,310.53
2023-04-24T02:10:41.611Z,309.47
2023-04-24T02:13:09.645Z,311.90
2023-04-24T02:15:39.238Z,312.80
2023-04-24T02:18:07.882Z,309.77
2023-04-24T02:20:36.486Z,309.57
2023-04-24T02:23:04.494Z,309.97
2023-04-24T02:25:32.538Z,307.83
2023-04-24T02:28:00.629Z,311.23
2023-04-24T02:30:28.656Z,306.97
2023-04-24T02:32:58.054Z,309.87
2023-04-24T02:35:26.090Z,308.23
2023-04-24T02:37:54.200Z,308.93
2023-04-24T02:40:22.279Z,307.17
2023-04-24T02:42:50.364Z,305.90
2023-04-24T02:45:18.464Z,309.73
2023-04-24T02:47:46.774Z,306.00
2023-04-24T02:50:16.250Z,309.30
2023-04-24T02:52:44.268Z,307.37
2023-04-24T02:55:12.590Z,309.90
2023-04-24T02:57:40.570Z,308.67
2023-04-24T03:00:10.744Z,312.40
2023-04-24T03:02:38.943Z,309.63
2023-04-24T03:05:08.675Z,312.00
2023-04-24T03:07:38.122Z,310.07
2023-04-24T03:10:06.983Z,306.90
2023-04-24T03:12:34.987Z,309.83
2023-04-24T03:15:03.323Z,309.00
2023-04-24T03:17:32.866Z,309.60
2023-04-24T03:20:00.923Z,312.00
2023-04-24T03:22:28.892Z,311.77
2023-04-24T03:24:58.273Z,310.93
2023-04-24T03:27:26.379Z,311.63
2023-04-24T03:29:56.299Z,311.07
2023-04-24T03:32:25.574Z,311.67
2023-04-24T03:34:53.579Z,315.20
2023-04-24T03:37:21.649Z,311.30
2023-04-24T03:39:49.605Z,317.57
2023-04-24T03:42:18.964Z,316.33
2023-04-24T03:44:47.110Z,312.60
2023-04-24T03:47:15.168Z,315.33
2023-04-24T03:49:43.721Z,311.70
2023-04-24T03:52:12.010Z,310.87
2023-04-24T03:54:39.991Z,313.80
2023-04-24T03:57:08.143Z,313.37
2023-04-24T03:59:37.542Z,315.37
2023-04-24T04:02:05.633Z,312.57
2023-04-24T04:04:33.927Z,312.17
2023-04-24T04:07:03.874Z,315.30
2023-04-24T04:09:32.222Z,310.87
2023-04-24T04:12:01.463Z,317.00
2023-04-24T04:14:29.614Z,313.53
2023-04-24T04:16:59.095Z,312.50
2023-04-24T04:19:27.149Z,315.67
2023-04-24T04:21:57.151Z,311.83
2023-04-24T04:24:25.455Z,319.27
2023-04-24T04:26:53.668Z,309.53
2023-04-24T04:29:21.792Z,316.80
2023-04-24T04:31:49.853Z,313.70
2023-04-24T04:34:19.452Z,314.37
2023-04-24T04:36:47.614Z,312.17
2023-04-24T04:39:17.541Z,314.10
2023-04-24T04:41:47.623Z,316.17
2023-04-24T04:44:15.980Z,315.80
2023-04-24T04:46:45.143Z,315.03
2023-04-24T04:49:14.151Z,314.33
2023-04-24T04:51:43.553Z,316.97
2023-04-24T04:54:11.781Z,316.63
2023-04-24T04:56:40.041Z,314.80
2023-04-24T04:59:08.340Z,316.23
2023-04-24T05:01:36.642Z,316.37
2023-04-24T05:04:04.970Z,323.00
2023-04-24T05:06:33.026Z,322.40
2023-04-24T05:09:02.384Z,318.53
2023-04-24T05:11:30.725Z,319.50
2023-04-24T05:13:58.753Z,321.73
2023-04-24T05:16:26.867Z,320.93
2023-04-24T05:18:54.928Z,320.17
2023-04-24T05:21:23.116Z,330.60
2023-04-24T05:23:51.104Z,324.27
2023-04-24T05:26:20.577Z,325.37
2023-04-24T05:28:48.573Z,321.90
2023-04-24T05:31:16.938Z,321.83
2023-04-24T05:33:45.171Z,323.70
2023-04-24T05:36:13.756Z,323.67
2023-04-24T05:38:41.979Z,326.80
2023-04-24T05:41:10.024Z,325.70
2023-04-24T05:43:39.432Z,324.33
2023-04-24T05:46:07.544Z,324.80
2023-04-24T05:48:35.708Z,328.20
2023-04-24T05:51:03.741Z,331.70
2023-04-24T05:53:31.904Z,329.03
2023-04-24T05:56:00.130Z,326.97
2023-04-24T05:58:28.094Z,328.73
2023-04-24T06:00:59.487Z,329.30
2023-04-24T06:03:27.707Z,325.30
2023-04-24T06:05:55.961Z,325.60
2023-04-24T06:08:23.984Z,323.77
2023-04-24T06:10:52.296Z,324.87
2023-04-24T06:13:20.676Z,328.30
2023-04-24T06:15:48.666Z,327.07
2023-04-24T06:18:18.107Z,332.87
2023-04-24T06:20:47.468Z,331.30
2023-04-24T06:23:15.531Z,330.20
2023-04-24T06:25:43.588Z,330.87
2023-04-24T06:28:11.625Z,334.70
2023-04-24T06:30:39.758Z,333.43
2023-04-24T06:33:19.343Z,328.27
2023-04-24T06:35:51.801Z,329.60
2023-04-24T06:38:20.098Z,336.80
2023-04-24T06:40:48.137Z,334.30
2023-04-24T06:43:16.223Z,332.63
2023-04-24T06:45:45.299Z,338.57
2023-04-24T06:48:13.543Z,338.27
2023-04-24T06:50:41.716Z,341.67
2023-04-24T06:53:13.972Z,341.17
2023-04-24T06:55:42.261Z,347.97
2023-04-24T06:58:11.058Z,349.57
2023-04-24T07:00:39.109Z,348.07
2023-04-24T07:03:07.371Z,348.57
2023-04-24T07:05:36.159Z,347.60
2023-04-24T07:08:05.048Z,348.83
2023-04-24T07:10:35.154Z,355.97
2023-04-24T07:13:03.412Z,345.53
2023-04-24T07:15:33.414Z,352.83
2023-04-24T07:18:05.957Z,352.37
2023-04-24T07:20:35.098Z,355.33
2023-04-24T07:23:03.196Z,353.73
2023-04-24T07:25:32.369Z,353.00
2023-04-24T07:28:01.994Z,349.43
2023-04-24T07:30:30.380Z,351.37
2023-04-24T07:32:58.624Z,348.53
2023-04-24T07:35:27.487Z,349.77
2023-04-24T07:37:55.843Z,351.20
2023-04-24T07:40:24.658Z,354.43
2023-04-24T07:42:52.857Z,354.43
2023-04-24T07:45:22.587Z,360.80
2023-04-24T07:47:50.703Z,363.47
2023-04-24T07:50:18.990Z,366.93
2023-04-24T07:52:47.000Z,360.70
2023-04-24T07:55:15.360Z,362.40
2023-04-24T07:57:43.381Z,363.47
2023-04-24T08:00:12.639Z,363.83
2023-04-24T08:02:42.383Z,360.10
2023-04-24T08:05:11.212Z,365.27
2023-04-24T08:07:40.011Z,362.67
2023-04-24T08:10:09.364Z,361.80
2023-04-24T08:12:37.451Z,363.37
2023-04-24T08:15:06.415Z,365.03
2023-04-24T08:17:34.591Z,370.50
2023-04-24T08:20:04.866Z,372.47
2023-04-24T08:22:33.112Z,372.83
2023-04-24T08:25:02.653Z,378.00
2023-04-24T08:27:30.764Z,387.13
2023-04-24T08:30:00.922Z,387.60
2023-04-24T08:32:29.945Z,388.23
2023-04-24T08:34:58.303Z,386.80
2023-04-24T08:37:28.894Z,396.27
2023-04-24T08:39:56.966Z,417.07
2023-04-24T08:42:25.333Z,417.95
2023-04-24T08:44:53.345Z,427.05
2023-04-24T08:47:22.769Z,447.42
2023-04-24T08:49:52.353Z,445.33
2023-04-24T08:52:21.196Z,444.20
2023-04-24T08:54:50.854Z,448.13
2023-04-24T08:57:19.673Z,461.48
2023-04-24T08:59:48.763Z,473.58
2023-04-24T09:02:18.290Z,479.98
2023-04-24T09:04:48.149Z,480.80
2023-04-24T09:07:19.062Z,487.88
2023-04-24T09:09:47.572Z,497.08
2023-04-24T09:12:17.067Z,486.48
2023-04-24T09:14:46.293Z,492.13
2023-04-24T09:17:14.736Z,482.88
2023-04-24T09:19:43.221Z,513.17
2023-04-24T09:22:12.336Z,516.78
2023-04-24T09:24:41.155Z,509.08
2023-04-24T09:27:11.303Z,525.67
2023-04-24T09:29:41.445Z,530.97
2023-04-24T09:32:26.665Z,523.53
2023-04-24T09:35:11.842Z,505.63
2023-04-24T09:37:42.380Z,487.13
2023-04-24T09:40:13.397Z,490.63
2023-04-24T09:42:41.657Z,484.00
2023-04-24T09:45:15.923Z,472.60
2023-04-24T09:47:44.886Z,468.90
2023-04-24T09:50:15.131Z,470.80
2023-04-24T09:52:44.742Z,480.30
2023-04-24T09:55:19.589Z,484.27
2023-04-24T09:57:55.515Z,502.27
2023-04-24T10:00:29.838Z,502.65
2023-04-24T10:02:59.923Z,526.30
2023-04-24T10:05:30.240Z,533.50
2023-04-24T10:08:04.323Z,559.25
2023-04-24T10:10:33.247Z,577.97
2023-04-24T10:13:01.779Z,588.85
2023-04-24T10:15:31.454Z,582.90
2023-04-24T10:18:01.236Z,588.92
2023-04-24T10:20:31.734Z,572.65
2023-04-24T10:23:01.318Z,578.03
2023-04-24T10:25:31.632Z,583.20
2023-04-24T10:28:01.343Z,576.95
2023-04-24T10:30:35.836Z,568.35
2023-04-24T10:33:05.067Z,575.95
2023-04-24T10:35:34.756Z,569.13
2023-04-24T10:38:07.471Z,569.42
2023-04-24T10:40:37.932Z,584.88
2023-04-24T10:43:08.991Z,585.30
2023-04-24T10:45:38.815Z,575.25
2023-04-24T10:48:12.172Z,573.55
2023-04-24T10:50:48.365Z,560.55
2023-04-24T10:53:19.157Z,555.47
2023-04-24T10:55:49.377Z,564.03
2023-04-24T10:58:18.468Z,545.72
2023-04-24T11:00:59.240Z,546.43
2023-04-24T11:03:30.358Z,537.33
2023-04-24T11:06:00.977Z,554.08
2023-04-24T11:08:32.511Z,535.67
2023-04-24T11:11:03.498Z,552.28
2023-04-24T11:14:07.930Z,558.97
2023-04-24T11:16:45.340Z,552.30
2023-04-24T11:19:22.474Z,554.95
2023-04-24T11:21:57.605Z,586.17
2023-04-24T11:24:31.746Z,596.38
2023-04-24T11:27:02.570Z,608.33
2023-04-24T11:29:48.565Z,607.47
2023-04-24T11:32:20.542Z,598.47
2023-04-24T11:34:50.111Z,604.92
2023-04-24T11:37:18.626Z,599.70
2023-04-24T11:39:47.356Z,602.60
2023-04-24T11:42:17.397Z,601.85
2023-04-24T11:44:45.909Z,575.58
2023-04-24T11:47:13.989Z,569.35
2023-04-24T11:49:43.707Z,556.58
2023-04-24T11:52:12.798Z,539.35
2023-04-24T11:54:48.421Z,533.67
2023-04-24T11:57:16.469Z,507.97
2023-04-24T11:59:44.705Z,530.17
2023-04-24T12:02:23.580Z,522.33
2023-04-24T12:04:54.069Z,520.23
2023-04-24T12:07:22.868Z,524.38
2023-04-24T12:10:00.564Z,540.45
2023-04-24T12:12:29.764Z,533.47
2023-04-24T12:14:59.604Z,538.13
2023-04-24T12:17:30.093Z,528.60
2023-04-24T12:20:04.363Z,536.55
2023-04-24T12:22:47.025Z,533.13
2023-04-24T12:25:15.822Z,520.77
2023-04-24T12:27:44.098Z,521.58
2023-04-24T12:30:15.310Z,517.07
2023-04-24T12:32:44.825Z,508.80
2023-04-24T12:35:14.353Z,498.52
2023-04-24T12:37:47.266Z,515.53
2023-04-24T12:40:16.821Z,523.03
2023-04-24T12:42:46.781Z,510.67
2023-04-24T12:45:15.794Z,527.47
2023-04-24T12:47:44.804Z,533.80
2023-04-24T12:50:15.590Z,533.60
2023-04-24T12:52:44.546Z,529.30
2023-04-24T12:55:53.038Z,525.78
2023-04-24T12:58:22.136Z,536.67
2023-04-24T13:00:50.249Z,539.10
2023-04-24T13:03:18.569Z,544.20
2023-04-24T13:05:48.123Z,553.25
2023-04-24T13:08:16.245Z,565.75
2023-04-24T13:10:44.366Z,568.63
2023-04-24T13:13:12.580Z,570.42
2023-04-24T13:15:40.625Z,580.72
2023-04-24T13:18:08.786Z,583.20
2023-04-24T13:20:37.445Z,598.75
2023-04-24T13:23:06.796Z,570.15
2023-04-24T13:25:38.448Z,579.20
2023-04-24T13:28:06.547Z,595.97
2023-04-24T13:30:34.675Z,592.45
2023-04-24T13:33:02.951Z,591.72
2023-04-24T13:35:31.062Z,598.03
2023-04-24T13:38:02.211Z,615.05
2023-04-24T13:40:31.647Z,594.83
2023-04-24T13:42:59.898Z,606.85
2023-04-24T13:45:27.910Z,601.55
2023-04-24T13:47:56.173Z,589.38
2023-04-24T13:50:24.528Z,570.92
2023-04-24T13:52:52.635Z,573.22
2023-04-24T13:55:21.032Z,577.55
2023-04-24T13:57:50.960Z,558.88
2023-04-24T14:00:20.172Z,565.38
2023-04-24T14:02:48.343Z,551.90
2023-04-24T14:05:17.589Z,553.65
2023-04-24T14:07:46.013Z,567.17
2023-04-24T14:10:14.282Z,564.97
2023-04-24T14:12:42.603Z,565.72
2023-04-24T14:15:14.343Z,566.40
2023-04-24T14:17:42.766Z,569.58
2023-04-24T14:20:11.505Z,564.10
2023-04-24T14:22:39.623Z,577.63
2023-04-24T14:25:08.875Z,576.33
2023-04-24T14:27:37.035Z,587.53
2023-04-24T14:30:06.183Z,590.63
2023-04-24T14:32:35.903Z,565.70
2023-04-24T14:35:04.160Z,572.22
2023-04-24T14:37:32.312Z,566.85
2023-04-24T14:40:13.548Z,563.25
2023-04-24T14:42:48.387Z,544.92
2023-04-24T14:45:16.818Z,560.45
2023-04-24T14:47:46.885Z,558.40
2023-04-24T14:50:15.046Z,563.28
2023-04-24T14:52:43.250Z,571.60
2023-04-24T14:55:11.898Z,559.40
2023-04-24T14:57:40.024Z,558.28
2023-04-24T15:00:11.214Z,563.75
2023-04-24T15:02:45.187Z,554.70
2023-04-24T15:05:15.056Z,550.10
2023-04-24T15:07:43.533Z,547.38
2023-04-24T15:10:12.532Z,537.75
2023-04-24T15:12:40.811Z,535.78
2023-04-24T15:15:10.993Z,531.17
2023-04-24T15:17:38.971Z,539.50
2023-04-24T15:20:08.566Z,552.35
2023-04-24T15:22:38.090Z,549.58
2023-04-24T15:25:07.316Z,560.03
2023-04-24T15:27:43.107Z,556.70
2023-04-24T15:30:12.563Z,547.75
2023-04-24T15:32:40.929Z,558.10
2023-04-24T15:35:10.326Z,561.47
2023-04-24T15:37:40.677Z,555.30
2023-04-24T15:40:11.457Z,562.00
2023-04-24T15:42:39.608Z,560.65
2023-04-24T15:45:08.591Z,537.97
2023-04-24T15:47:37.300Z,546.22
2023-04-24T15:50:06.248Z,519.78
2023-04-24T15:52:34.277Z,516.67
2023-04-24T15:55:06.278Z,517.90
2023-04-24T15:57:34.275Z,494.00
2023-04-24T16:00:02.381Z,501.13
2023-04-24T16:02:30.653Z,482.23
2023-04-24T16:04:58.945Z,488.93
2023-04-24T16:07:27.087Z,486.63
2023-04-24T16:09:55.886Z,490.83
2023-04-24T16:12:27.660Z,477.60
2023-04-24T16:14:55.930Z,472.17
2023-04-24T16:17:23.976Z,467.30
2023-04-24T16:19:52.092Z,459.43
2023-04-24T16:22:20.164Z,450.97
2023-04-24T16:24:48.267Z,446.30
2023-04-24T16:27:16.684Z,453.80
2023-04-24T16:29:46.491Z,439.93
2023-04-24T16:32:14.565Z,449.00
2023-04-24T16:34:42.681Z,453.40
2023-04-24T16:37:12.498Z,436.33
2023-04-24T16:39:44.818Z,443.80
2023-04-24T16:42:13.302Z,454.40
2023-04-24T16:44:41.985Z,451.23
2023-04-24T16:47:14.114Z,449.77
2023-04-24T16:49:42.479Z,440.47
2023-04-24T16:52:11.369Z,430.90
2023-04-24T16:54:39.520Z,432.10
2023-04-24T16:57:08.584Z,420.87
2023-04-24T16:59:36.836Z,426.97
2023-04-24T17:02:05.082Z,414.97
2023-04-24T17:04:35.859Z,437.03
2023-04-24T17:07:04.073Z,393.87
2023-04-24T17:09:32.282Z,389.23
2023-04-24T17:12:02.131Z,382.80
2023-04-24T17:14:30.326Z,373.73
2023-04-24T17:16:58.523Z,371.00
2023-04-24T17:19:26.983Z,368.70
2023-04-24T17:21:56.530Z,369.50
2023-04-24T17:24:24.540Z,367.50
2023-04-24T17:26:54.450Z,363.27
2023-04-24T17:29:24.847Z,363.83
2023-04-24T17:31:52.913Z,363.07
2023-04-24T17:34:22.560Z,362.87
2023-04-24T17:36:50.633Z,390.00
2023-04-24T17:39:20.111Z,360.37
2023-04-24T17:41:48.243Z,357.63
2023-04-24T17:44:16.366Z,357.80
2023-04-24T17:46:44.464Z,353.20
2023-04-24T17:49:12.944Z,352.87
2023-04-24T17:51:40.888Z,351.40
2023-04-24T17:54:08.865Z,346.77
2023-04-24T17:56:38.339Z,351.43
2023-04-24T17:59:06.395Z,345.37
2023-04-24T18:01:34.442Z,345.83
2023-04-24T18:04:02.641Z,346.10
2023-04-24T18:06:30.869Z,342.97
2023-04-24T18:08:58.865Z,343.63
2023-04-24T18:11:27.831Z,340.60
2023-04-24T18:13:57.212Z,342.50
2023-04-24T18:16:25.957Z,340.13
2023-04-24T18:18:54.608Z,339.83
2023-04-24T18:21:23.729Z,336.27
2023-04-24T18:23:51.749Z,336.30
2023-04-24T18:26:20.383Z,334.03
2023-04-24T18:28:48.733Z,337.37
2023-04-24T18:31:18.629Z,333.70
2023-04-24T18:33:46.647Z,332.70
2023-04-24T18:36:14.698Z,330.23
2023-04-24T18:38:43.625Z,333.73
2023-04-24T18:41:11.680Z,333.73
2023-04-24T18:43:39.802Z,334.27
2023-04-24T18:46:07.830Z,328.67
2023-04-24T18:48:37.378Z,329.77
2023-04-24T18:51:05.531Z,328.60
2023-04-24T18:53:33.768Z,321.57
2023-04-24T18:56:01.840Z,324.77
2023-04-24T18:58:30.046Z,323.97
2023-04-24T19:00:58.363Z,322.80
2023-04-24T19:03:26.647Z,324.80
2023-04-24T19:05:56.111Z,322.13
2023-04-24T19:08:24.224Z,323.03
2023-04-24T19:10:52.210Z,322.80
2023-04-24T19:13:20.609Z,320.00
2023-04-24T19:15:48.720Z,318.93
2023-04-24T19:18:18.776Z,318.40
2023-04-24T19:20:46.779Z,314.40
2023-04-24T19:23:16.156Z,313.23
2023-04-24T19:25:44.269Z,315.33
2023-04-24T19:28:12.568Z,313.37
2023-04-24T19:30:40.749Z,314.07
2023-04-24T19:33:10.766Z,313.47
2023-04-24T19:35:39.144Z,311.40
2023-04-24T19:38:16.087Z,309.83
2023-04-24T19:40:45.643Z,308.93
2023-04-24T19:43:13.733Z,311.67
2023-04-24T19:45:41.887Z,311.70
2023-04-24T19:48:10.161Z,309.90
2023-04-24T19:50:38.869Z,310.63
2023-04-24T19:53:07.453Z,308.13
2023-04-24T19:55:35.625Z,309.73
2023-04-24T19:58:05.305Z,305.60
2023-04-24T20:00:35.025Z,310.93
2023-04-24T20:03:03.262Z,311.50
2023-04-24T20:05:31.524Z,326.93
2023-04-24T20:07:59.551Z,315.37
2023-04-24T20:10:27.670Z,312.43
2023-04-24T20:12:56.269Z,316.00
2023-04-24T20:15:25.624Z,309.20
2023-04-24T20:17:53.678Z,311.10
2023-04-24T20:20:22.085Z,309.83
2023-04-24T20:22:50.108Z,312.70
2023-04-24T20:25:18.571Z,305.93
2023-04-24T20:27:46.520Z,308.60
2023-04-24T20:30:15.919Z,306.70
2023-04-24T20:32:45.573Z,307.80
2023-04-24T20:35:13.699Z,310.93
2023-04-24T20:37:41.706Z,304.80
2023-04-24T20:40:10.616Z,302.20
2023-04-24T20:42:39.521Z,303.47
2023-04-24T20:45:08.611Z,304.23
2023-04-24T20:47:36.970Z,302.03
2023-04-24T20:50:07.771Z,303.77
2023-04-24T20:52:35.869Z,303.67
2023-04-24T20:55:04.154Z,305.03
2023-04-24T20:57:32.502Z,302.83
2023-04-24T21:00:00.483Z,304.60
2023-04-24T21:02:28.555Z,306.83
2023-04-24T21:04:56.662Z,305.93
2023-04-24T21:07:26.327Z,308.80
2023-04-24T21:09:54.310Z,305.27
2023-04-24T21:12:22.470Z,300.60
2023-04-24T21:14:51.372Z,299.03
2023-04-24T21:17:19.875Z,299.17
2023-04-24T21:19:48.015Z,298.13
2023-04-24T21:22:16.274Z,298.90
2023-04-24T21:24:45.643Z,301.60
2023-04-24T21:27:14.071Z,298.90
2023-04-24T21:29:42.135Z,295.33
2023-04-24T21:32:10.248Z,300.57
2023-04-24T21:34:38.256Z,296.20
2023-04-24T21:37:06.352Z,295.63
2023-04-24T21:39:34.921Z,296.00
2023-04-24T21:42:04.709Z,294.50
2023-04-24T21:44:33.406Z,296.20
2023-04-24T21:47:01.393Z,293.37
2023-04-24T21:49:29.416Z,297.10
2023-04-24T21:51:57.368Z,313.40
2023-04-24T21:54:25.355Z,314.20
2023-04-24T21:56:53.400Z,299.90
2023-04-24T21:59:22.784Z,295.67
2023-04-24T22:01:50.946Z,295.73
2023-04-24T22:04:19.089Z,295.40
2023-04-24T22:06:47.455Z,299.60
2023-04-24T22:09:15.814Z,291.67
2023-04-24T22:11:43.975Z,294.37
2023-04-24T22:14:12.411Z,296.10
2023-04-24T22:16:42.154Z,292.23
2023-04-24T22:19:10.357Z,292.93
2023-04-24T22:21:38.901Z,302.17
2023-04-24T22:24:07.905Z,304.33
2023-04-24T22:26:36.202Z,290.60
2023-04-24T22:29:04.264Z,288.90
2023-04-24T22:31:32.804Z,290.20
2023-04-24T22:34:02.346Z,293.97
2023-04-24T22:36:31.848Z,294.80
2023-04-24T22:38:59.837Z,291.00
2023-04-24T22:41:28.060Z,290.77
2023-04-24T22:43:56.938Z,293.50
2023-04-24T22:46:26.123Z,290.80
2023-04-24T22:48:54.665Z,290.80
2023-04-24T22:51:24.101Z,290.97
2023-04-24T22:53:52.258Z,291.80
2023-04-24T22:56:20.553Z,292.10
2023-04-24T22:58:48.970Z,289.43
2023-04-24T23:01:17.486Z,287.80
2023-04-24T23:03:46.096Z,291.90
2023-04-24T23:06:14.551Z,288.63
2023-04-24T23:08:44.091Z,288.93
2023-04-24T23:11:12.568Z,287.57
2023-04-24T23:13:41.339Z,288.83
2023-04-24T23:16:09.647Z,289.27
2023-04-24T23:18:37.740Z,286.43
2023-04-24T23:21:06.711Z,287.47
2023-04-24T23:23:35.143Z,286.43
2023-04-24T23:26:04.792Z,283.37
2023-04-24T23:28:32.938Z,287.57
2023-04-24T23:31:00.983Z,286.70
2023-04-24T23:33:29.020Z,285.93
2023-04-24T23:35:58.372Z,285.47
2023-04-24T23:38:27.468Z,289.57
2023-04-24T23:40:58.190Z,291.67
2023-04-24T23:43:27.637Z,285.23
2023-04-24T23:45:55.844Z,291.80
2023-04-24T23:48:23.928Z,285.77
2023-04-24T23:50:52.046Z,285.80
2023-04-24T23:53:20.060Z,286.97
2023-04-24T23:55:48.471Z,288.93
2023-04-24T23:58:16.562Z,285.73
